sensor_id;sensor_type;location;lat;lon;timestamp;pressure;altitude;pressure_sealevel;temperature;humidity
24302;BME280;12421;49.732;20.078;2024-03-07T00:05:14;97172.13;;;2.38;89.00
24302;BME280;12421;49.732;20.078;2024-03-07T00:15:17;97165.67;;;2.37;88.47
24302;BME280;12421;49.732;20.078;2024-03-07T00:25:21;97160.92;;;2.33;87.84
24302;BME280;12421;49.732;20.078;2024-03-07T00:35:25;97158.95;;;2.31;88.14
24302;BME280;12421;49.732;20.078;2024-03-07T00:45:28;97157.17;;;2.29;87.96
24302;BME280;12421;49.732;20.078;2024-03-07T00:55:31;97156.46;;;2.28;87.87
24302;BME280;12421;49.732;20.078;2024-03-07T01:05:35;97154.13;;;2.25;87.60
24302;BME280;12421;49.732;20.078;2024-03-07T01:15:39;97152.66;;;2.22;87.38
24302;BME280;12421;49.732;20.078;2024-03-07T01:25:42;97149.69;;;2.14;87.51
24302;BME280;12421;49.732;20.078;2024-03-07T01:35:45;97154.09;;;2.10;87.83
24302;BME280;12421;49.732;20.078;2024-03-07T01:45:51;97149.96;;;2.04;88.04
24302;BME280;12421;49.732;20.078;2024-03-07T01:55:57;97144.91;;;2.03;88.32
24302;BME280;12421;49.732;20.078;2024-03-07T02:06:01;97148.20;;;2.03;88.20
24302;BME280;12421;49.732;20.078;2024-03-07T02:16:06;97141.63;;;2.03;88.32
24302;BME280;12421;49.732;20.078;2024-03-07T02:26:10;97137.09;;;2.02;88.04
24302;BME280;12421;49.732;20.078;2024-03-07T02:36:13;97138.16;;;2.03;88.17
24302;BME280;12421;49.732;20.078;2024-03-07T02:46:16;97135.77;;;2.04;87.98
24302;BME280;12421;49.732;20.078;2024-03-07T02:56:20;97135.33;;;2.01;88.02
24302;BME280;12421;49.732;20.078;2024-03-07T03:06:23;97137.03;;;2.00;88.21
24302;BME280;12421;49.732;20.078;2024-03-07T03:16:26;97140.06;;;2.02;88.22
24302;BME280;12421;49.732;20.078;2024-03-07T03:26:49;97141.39;;;2.00;88.04
24302;BME280;12421;49.732;20.078;2024-03-07T03:36:52;97138.72;;;1.91;88.05
24302;BME280;12421;49.732;20.078;2024-03-07T03:46:55;97141.96;;;1.76;88.25
24302;BME280;12421;49.732;20.078;2024-03-07T03:56:59;97142.29;;;1.63;89.05
24302;BME280;12421;49.732;20.078;2024-03-07T04:07:02;97141.45;;;1.57;89.21
24302;BME280;12421;49.732;20.078;2024-03-07T04:17:07;97141.81;;;1.58;89.12
24302;BME280;12421;49.732;20.078;2024-03-07T04:27:11;97145.21;;;1.62;88.97
24302;BME280;12421;49.732;20.078;2024-03-07T04:37:14;97149.98;;;1.66;88.88
24302;BME280;12421;49.732;20.078;2024-03-07T04:47:18;97152.39;;;1.58;88.93
24302;BME280;12421;49.732;20.078;2024-03-07T04:57:21;97156.02;;;1.52;90.14
24302;BME280;12421;49.732;20.078;2024-03-07T05:07:24;97155.38;;;1.41;91.12
24302;BME280;12421;49.732;20.078;2024-03-07T05:17:27;97158.55;;;1.32;91.96
24302;BME280;12421;49.732;20.078;2024-03-07T05:27:32;97170.83;;;1.26;92.94
24302;BME280;12421;49.732;20.078;2024-03-07T05:37:36;97176.45;;;1.22;93.50
24302;BME280;12421;49.732;20.078;2024-03-07T05:47:39;97185.36;;;1.20;93.75
24302;BME280;12421;49.732;20.078;2024-03-07T05:57:43;97191.70;;;1.12;93.96
24302;BME280;12421;49.732;20.078;2024-03-07T06:07:47;97192.57;;;1.07;94.68
24302;BME280;12421;49.732;20.078;2024-03-07T06:17:52;97193.84;;;1.03;95.00
24302;BME280;12421;49.732;20.078;2024-03-07T06:27:55;97206.96;;;1.03;94.90
24302;BME280;12421;49.732;20.078;2024-03-07T06:37:59;97211.73;;;1.00;94.81
24302;BME280;12421;49.732;20.078;2024-03-07T06:48:05;97215.69;;;0.94;95.31
24302;BME280;12421;49.732;20.078;2024-03-07T06:58:12;97219.31;;;0.88;95.40
24302;BME280;12421;49.732;20.078;2024-03-07T07:08:15;97227.80;;;0.89;95.23
24302;BME280;12421;49.732;20.078;2024-03-07T07:18:19;97235.73;;;0.94;95.14
24302;BME280;12421;49.732;20.078;2024-03-07T07:28:22;97234.59;;;0.91;94.89
24302;BME280;12421;49.732;20.078;2024-03-07T07:38:25;97241.66;;;0.90;94.82
24302;BME280;12421;49.732;20.078;2024-03-07T07:48:29;97246.55;;;0.86;94.63
24302;BME280;12421;49.732;20.078;2024-03-07T07:58:32;97251.02;;;0.85;93.95
24302;BME280;12421;49.732;20.078;2024-03-07T08:08:36;97252.18;;;0.84;93.79
24302;BME280;12421;49.732;20.078;2024-03-07T08:18:39;97257.52;;;0.78;93.72
24302;BME280;12421;49.732;20.078;2024-03-07T08:28:42;97257.25;;;0.80;93.59
24302;BME280;12421;49.732;20.078;2024-03-07T08:38:45;97266.96;;;0.81;93.16
24302;BME280;12421;49.732;20.078;2024-03-07T08:48:50;97265.05;;;0.81;93.05
24302;BME280;12421;49.732;20.078;2024-03-07T08:58:55;97262.77;;;0.80;93.04
24302;BME280;12421;49.732;20.078;2024-03-07T09:08:59;97267.75;;;0.84;92.92
24302;BME280;12421;49.732;20.078;2024-03-07T09:19:02;97269.63;;;0.84;92.72
24302;BME280;12421;49.732;20.078;2024-03-07T09:29:06;97277.20;;;0.88;92.74
24302;BME280;12421;49.732;20.078;2024-03-07T09:39:09;97277.15;;;0.98;92.16
24302;BME280;12421;49.732;20.078;2024-03-07T09:49:13;97283.07;;;1.04;91.54
24302;BME280;12421;49.732;20.078;2024-03-07T09:59:19;97279.92;;;1.08;91.12
24302;BME280;12421;49.732;20.078;2024-03-07T10:09:24;97272.41;;;1.12;91.20
24302;BME280;12421;49.732;20.078;2024-03-07T10:19:28;97279.73;;;1.13;91.18
24302;BME280;12421;49.732;20.078;2024-03-07T10:29:31;97283.70;;;1.13;90.85
24302;BME280;12421;49.732;20.078;2024-03-07T10:39:34;97288.96;;;1.15;90.78
24302;BME280;12421;49.732;20.078;2024-03-07T11:00:04;97305.17;;;1.31;90.29
24302;BME280;12421;49.732;20.078;2024-03-07T11:10:26;97316.91;;;1.35;89.56
24302;BME280;12421;49.732;20.078;2024-03-07T11:20:37;97316.73;;;1.35;89.56
24302;BME280;12421;49.732;20.078;2024-03-07T11:30:40;97322.15;;;1.31;89.19
24302;BME280;12421;49.732;20.078;2024-03-07T11:40:44;97316.02;;;1.29;89.36
24302;BME280;12421;49.732;20.078;2024-03-07T11:50:47;97308.81;;;1.31;89.44
24302;BME280;12421;49.732;20.078;2024-03-07T12:00:51;97299.69;;;1.32;89.50
24302;BME280;12421;49.732;20.078;2024-03-07T12:10:56;97302.33;;;1.33;89.45
24302;BME280;12421;49.732;20.078;2024-03-07T12:21:02;97314.48;;;1.35;89.38
24302;BME280;12421;49.732;20.078;2024-03-07T12:31:10;97308.86;;;1.38;89.23
24302;BME280;12421;49.732;20.078;2024-03-07T12:41:22;97313.89;;;1.39;89.02
24302;BME280;12421;49.732;20.078;2024-03-07T12:51:25;97316.15;;;1.39;89.33
24302;BME280;12421;49.732;20.078;2024-03-07T13:01:29;97324.34;;;1.40;88.94
24302;BME280;12421;49.732;20.078;2024-03-07T13:11:34;97329.38;;;1.41;89.08
24302;BME280;12421;49.732;20.078;2024-03-07T13:21:38;97321.04;;;1.40;89.03
24302;BME280;12421;49.732;20.078;2024-03-07T13:31:44;97323.39;;;1.44;88.94
24302;BME280;12421;49.732;20.078;2024-03-07T13:41:47;97326.98;;;1.48;88.96
24302;BME280;12421;49.732;20.078;2024-03-07T13:51:54;97326.39;;;1.57;89.13
24302;BME280;12421;49.732;20.078;2024-03-07T14:12:49;97329.13;;;1.50;89.01
24302;BME280;12421;49.732;20.078;2024-03-07T14:33:50;97328.52;;;1.54;88.19
24302;BME280;12421;49.732;20.078;2024-03-07T14:43:58;97320.27;;;1.61;87.53
24302;BME280;12421;49.732;20.078;2024-03-07T14:54:02;97314.73;;;1.66;86.97
24302;BME280;12421;49.732;20.078;2024-03-07T15:04:07;97312.98;;;1.71;86.89
24302;BME280;12421;49.732;20.078;2024-03-07T15:14:13;97308.78;;;1.76;86.52
24302;BME280;12421;49.732;20.078;2024-03-07T15:24:28;97304.91;;;1.79;86.22
24302;BME280;12421;49.732;20.078;2024-03-07T15:34:31;97308.19;;;1.85;86.03
24302;BME280;12421;49.732;20.078;2024-03-07T15:44:40;97311.20;;;1.87;85.40
24302;BME280;12421;49.732;20.078;2024-03-07T15:54:43;97320.48;;;1.98;85.53
24302;BME280;12421;49.732;20.078;2024-03-07T16:04:48;97326.85;;;2.08;85.52
24302;BME280;12421;49.732;20.078;2024-03-07T16:14:51;97334.33;;;2.09;84.69
24302;BME280;12421;49.732;20.078;2024-03-07T16:24:56;97339.09;;;2.12;84.73
24302;BME280;12421;49.732;20.078;2024-03-07T16:35:02;97341.91;;;2.08;84.74
24302;BME280;12421;49.732;20.078;2024-03-07T16:45:11;97344.52;;;2.09;85.30
24302;BME280;12421;49.732;20.078;2024-03-07T16:55:16;97344.86;;;2.08;85.39
24302;BME280;12421;49.732;20.078;2024-03-07T17:05:22;97349.17;;;2.14;85.68
24302;BME280;12421;49.732;20.078;2024-03-07T17:15:25;97356.30;;;2.15;85.87
24302;BME280;12421;49.732;20.078;2024-03-07T17:25:29;97364.24;;;2.13;85.71
24302;BME280;12421;49.732;20.078;2024-03-07T17:35:33;97365.65;;;2.09;85.71
24302;BME280;12421;49.732;20.078;2024-03-07T17:45:40;97373.30;;;2.10;85.91
24302;BME280;12421;49.732;20.078;2024-03-07T17:55:43;97373.55;;;2.12;86.08
24302;BME280;12421;49.732;20.078;2024-03-07T18:05:48;97372.61;;;2.22;86.09
24302;BME280;12421;49.732;20.078;2024-03-07T18:15:53;97371.09;;;2.17;85.32
24302;BME280;12421;49.732;20.078;2024-03-07T18:25:56;97371.34;;;2.07;85.00
24302;BME280;12421;49.732;20.078;2024-03-07T18:36:03;97375.45;;;2.06;84.32
24302;BME280;12421;49.732;20.078;2024-03-07T18:46:09;97374.57;;;1.99;83.41
24302;BME280;12421;49.732;20.078;2024-03-07T18:56:12;97373.42;;;1.96;83.59
24302;BME280;12421;49.732;20.078;2024-03-07T19:06:15;97369.75;;;1.95;83.51
24302;BME280;12421;49.732;20.078;2024-03-07T19:16:21;97374.91;;;1.93;83.51
24302;BME280;12421;49.732;20.078;2024-03-07T19:26:24;97378.93;;;1.89;82.93
24302;BME280;12421;49.732;20.078;2024-03-07T19:36:27;97380.83;;;1.83;82.51
24302;BME280;12421;49.732;20.078;2024-03-07T19:46:34;97382.96;;;1.79;82.72
24302;BME280;12421;49.732;20.078;2024-03-07T19:56:37;97382.99;;;1.75;82.44
24302;BME280;12421;49.732;20.078;2024-03-07T20:06:42;97381.23;;;1.73;82.18
24302;BME280;12421;49.732;20.078;2024-03-07T20:16:48;97382.54;;;1.77;82.26
24302;BME280;12421;49.732;20.078;2024-03-07T20:26:51;97382.61;;;1.80;82.47
24302;BME280;12421;49.732;20.078;2024-03-07T20:36:56;97376.25;;;1.75;81.65
24302;BME280;12421;49.732;20.078;2024-03-07T20:46:59;97375.65;;;1.72;81.28
24302;BME280;12421;49.732;20.078;2024-03-07T20:57:06;97375.89;;;1.74;81.20
24302;BME280;12421;49.732;20.078;2024-03-07T21:07:10;97381.19;;;1.78;81.32
24302;BME280;12421;49.732;20.078;2024-03-07T21:17:13;97376.30;;;1.76;81.62
24302;BME280;12421;49.732;20.078;2024-03-07T21:27:17;97369.51;;;1.75;82.07
24302;BME280;12421;49.732;20.078;2024-03-07T21:37:21;97365.94;;;1.71;81.91
24302;BME280;12421;49.732;20.078;2024-03-07T21:47:25;97362.27;;;1.70;82.07
24302;BME280;12421;49.732;20.078;2024-03-07T21:57:28;97362.17;;;1.68;81.68
24302;BME280;12421;49.732;20.078;2024-03-07T22:07:31;97358.91;;;1.62;81.71
24302;BME280;12421;49.732;20.078;2024-03-07T22:17:34;97355.23;;;1.61;81.87
24302;BME280;12421;49.732;20.078;2024-03-07T22:27:39;97350.27;;;1.62;81.98
24302;BME280;12421;49.732;20.078;2024-03-07T22:37:43;97348.11;;;1.66;81.81
24302;BME280;12421;49.732;20.078;2024-03-07T22:47:50;97345.73;;;1.67;81.55
24302;BME280;12421;49.732;20.078;2024-03-07T22:57:56;97344.06;;;1.63;81.83
24302;BME280;12421;49.732;20.078;2024-03-07T23:07:59;97338.77;;;1.60;82.04
24302;BME280;12421;49.732;20.078;2024-03-07T23:18:04;97335.42;;;1.58;82.03
24302;BME280;12421;49.732;20.078;2024-03-07T23:28:07;97340.73;;;1.62;81.89
24302;BME280;12421;49.732;20.078;2024-03-07T23:38:11;97338.59;;;1.60;81.79
24302;BME280;12421;49.732;20.078;2024-03-07T23:48:16;97338.23;;;1.60;81.64
24302;BME280;12421;49.732;20.078;2024-03-07T23:58:19;97331.94;;;1.58;81.46
